createdAt,value
2017-04-06T00:00:24.504Z,924.8
2017-04-06T00:00:52.815Z,924.79
2017-04-06T00:01:21.254Z,924.83
2017-04-06T00:01:49.416Z,924.81
2017-04-06T00:02:17.875Z,924.82
2017-04-06T00:02:46.284Z,924.85
2017-04-06T00:03:14.554Z,924.81
2017-04-06T00:03:42.747Z,924.85
2017-04-06T00:04:11.236Z,924.87
2017-04-06T00:04:39.469Z,924.82
2017-04-06T00:05:50.975Z,924.86
2017-04-06T00:06:19.377Z,924.89
2017-04-06T00:06:47.784Z,924.89
2017-04-06T00:07:16.137Z,924.88
2017-04-06T00:07:44.395Z,924.87
2017-04-06T00:08:12.862Z,924.85
2017-04-06T00:08:41.270Z,924.87
2017-04-06T00:09:09.636Z,924.87
2017-04-06T00:09:37.919Z,924.86
2017-04-06T00:10:06.316Z,924.87
2017-04-06T00:10:34.854Z,924.88
2017-04-06T00:11:46.271Z,924.84
2017-04-06T00:12:14.665Z,924.88
2017-04-06T00:12:43.094Z,924.87
2017-04-06T00:13:11.639Z,924.86
2017-04-06T00:13:39.990Z,924.86
2017-04-06T00:14:08.353Z,924.85
2017-04-06T00:14:36.754Z,924.86
2017-04-06T00:15:05.787Z,924.88
2017-04-06T00:15:34.082Z,924.89
2017-04-06T00:16:02.467Z,924.88
2017-04-06T00:16:30.799Z,924.92
2017-04-06T00:17:42.221Z,924.86
2017-04-06T00:18:10.640Z,924.93
2017-04-06T00:18:38.951Z,924.89
2017-04-06T00:19:07.354Z,924.91
2017-04-06T00:19:35.515Z,924.89
2017-04-06T00:20:03.794Z,924.88
2017-04-06T00:20:32.195Z,924.86
2017-04-06T00:21:00.364Z,924.9
2017-04-06T00:21:28.752Z,924.86
2017-04-06T00:21:57.216Z,924.86
2017-04-06T00:22:25.456Z,924.86
2017-04-06T00:23:36.872Z,924.9
2017-04-06T00:24:05.074Z,924.89
2017-04-06T00:24:33.471Z,924.89
2017-04-06T00:25:02.065Z,924.89
2017-04-06T00:25:30.313Z,924.89
2017-04-06T00:25:58.492Z,924.91
2017-04-06T00:26:26.895Z,924.88
2017-04-06T00:26:55.067Z,924.89
2017-04-06T00:27:23.172Z,924.88
2017-04-06T00:27:51.668Z,924.89
2017-04-06T00:28:19.987Z,924.88
2017-04-06T00:29:31.498Z,924.88
2017-04-06T00:29:59.813Z,924.89
2017-04-06T00:30:28.223Z,924.88
2017-04-06T00:30:56.661Z,924.9
2017-04-06T00:31:25.010Z,924.9
2017-04-06T00:31:53.282Z,924.87
2017-04-06T00:32:21.684Z,924.89
2017-04-06T00:32:49.956Z,924.9
2017-04-06T00:33:18.244Z,924.91
2017-04-06T00:33:46.513Z,924.9
2017-04-06T00:34:14.832Z,924.9
2017-04-06T00:35:26.151Z,924.93
2017-04-06T00:35:54.578Z,924.91
2017-04-06T00:36:22.896Z,924.91
2017-04-06T00:36:51.402Z,924.95
2017-04-06T00:37:19.587Z,924.92
2017-04-06T00:37:47.987Z,924.92
2017-04-06T00:38:16.391Z,924.92
2017-04-06T00:38:44.670Z,924.94
2017-04-06T00:39:12.868Z,924.92
2017-04-06T00:39:41.215Z,924.94
2017-04-06T00:40:09.454Z,924.94
2017-04-06T00:41:20.772Z,924.94
2017-04-06T00:41:48.992Z,924.95
2017-04-06T00:42:17.405Z,924.95
2017-04-06T00:42:45.803Z,924.98
2017-04-06T00:43:14.056Z,925
2017-04-06T00:43:42.525Z,924.97
2017-04-06T00:44:10.926Z,924.95
2017-04-06T00:44:39.293Z,924.96
2017-04-06T00:45:07.487Z,924.98
2017-04-06T00:45:35.875Z,924.98
2017-04-06T00:46:04.314Z,924.97
2017-04-06T00:47:15.821Z,925.01
2017-04-06T00:47:44.219Z,925
2017-04-06T00:48:12.633Z,924.96
2017-04-06T00:48:41.085Z,924.99
2017-04-06T00:49:09.340Z,924.98
2017-04-06T00:49:37.595Z,924.98
2017-04-06T00:50:05.998Z,924.99
2017-04-06T00:50:34.266Z,925
2017-04-06T00:51:02.648Z,925
2017-04-06T00:51:31.151Z,925.04
2017-04-06T00:51:59.293Z,925.02
2017-04-06T00:53:10.598Z,925.01
2017-04-06T00:53:38.999Z,925.04
2017-04-06T00:54:07.323Z,925.05
2017-04-06T00:54:35.745Z,925.03
2017-04-06T00:55:04.091Z,925.04
2017-04-06T00:55:32.555Z,925.06
2017-04-06T00:56:00.965Z,925.06
2017-04-06T00:56:29.239Z,925.07
2017-04-06T00:56:57.530Z,925.1
2017-04-06T00:57:25.809Z,925.07
2017-04-06T00:57:55.348Z,925.06
2017-04-06T00:59:06.858Z,925.1
2017-04-06T00:59:34.987Z,925.14
2017-04-06T01:00:03.307Z,925.14
2017-04-06T01:00:31.744Z,925.14
2017-04-06T01:01:00.088Z,925.14
2017-04-06T01:01:28.549Z,925.14
2017-04-06T01:01:56.952Z,925.15
2017-04-06T01:02:25.318Z,925.12
2017-04-06T01:02:53.608Z,925.15
2017-04-06T01:03:22.087Z,925.18
2017-04-06T01:03:50.418Z,925.19
2017-04-06T01:05:01.916Z,925.2
2017-04-06T01:05:30.238Z,925.24
2017-04-06T01:05:58.645Z,925.19
2017-04-06T01:06:27.247Z,925.23
2017-04-06T01:06:55.596Z,925.23
2017-04-06T01:07:24.043Z,925.22
2017-04-06T01:07:52.263Z,925.2
2017-04-06T01:08:20.530Z,925.21
2017-04-06T01:08:48.820Z,925.19
2017-04-06T01:09:17.293Z,925.19
2017-04-06T01:09:45.522Z,925.18
2017-04-06T01:10:56.931Z,925.17
2017-04-06T01:11:25.265Z,925.15
2017-04-06T01:11:53.699Z,925.21
2017-04-06T01:12:22.143Z,925.18
2017-04-06T01:12:50.495Z,925.16
2017-04-06T01:13:18.991Z,925.18
2017-04-06T01:13:47.309Z,925.19
2017-04-06T01:14:15.678Z,925.18
2017-04-06T01:14:43.875Z,925.12
2017-04-06T01:15:12.341Z,925.16
2017-04-06T01:15:40.569Z,925.13
2017-04-06T01:16:51.982Z,925.15
2017-04-06T01:17:20.329Z,925.11
2017-04-06T01:17:48.646Z,925.15
2017-04-06T01:18:17.090Z,925.15
2017-04-06T01:18:45.251Z,925.14
2017-04-06T01:19:13.533Z,925.15
2017-04-06T01:19:41.750Z,925.13
2017-04-06T01:20:10.024Z,925.13
2017-04-06T01:20:38.315Z,925.14
2017-04-06T01:21:06.772Z,925.13
2017-04-06T01:21:35.092Z,925.13
2017-04-06T01:22:46.409Z,925.14
2017-04-06T01:23:14.838Z,925.1
2017-04-06T01:23:43.254Z,925.07
2017-04-06T01:24:11.791Z,925.13
2017-04-06T01:24:40.049Z,925.14
2017-04-06T01:25:08.521Z,925.09
2017-04-06T01:25:36.932Z,925.11
2017-04-06T01:26:05.018Z,925.13
2017-04-06T01:26:33.406Z,925.08
2017-04-06T01:27:01.911Z,925.12
2017-04-06T01:27:30.237Z,925.09
2017-04-06T01:28:41.733Z,925.1
2017-04-06T01:29:10.170Z,925.12
2017-04-06T01:29:38.578Z,925.11
2017-04-06T01:30:07.093Z,925.1
2017-04-06T01:30:35.441Z,925.11
2017-04-06T01:31:03.911Z,925.14
2017-04-06T01:31:32.319Z,925.09
2017-04-06T01:32:00.595Z,925.12
2017-04-06T01:32:28.888Z,925.09
2017-04-06T01:32:57.383Z,925.1
2017-04-06T01:33:25.708Z,925.11
2017-04-06T01:34:37.115Z,925.11
2017-04-06T01:35:05.552Z,925.09
2017-04-06T01:35:33.792Z,925.07
2017-04-06T01:36:02.331Z,925.1
2017-04-06T01:36:30.685Z,925.11
2017-04-06T01:36:59.146Z,925.12
2017-04-06T01:37:27.559Z,925.1
2017-04-06T01:37:55.737Z,925.12
2017-04-06T01:38:24.138Z,925.14
2017-04-06T01:38:52.651Z,925.15
2017-04-06T01:39:20.970Z,925.16
2017-04-06T01:40:32.284Z,925.17
2017-04-06T01:41:00.618Z,925.15
2017-04-06T01:41:28.933Z,925.18
2017-04-06T01:41:57.449Z,925.15
2017-04-06T01:42:25.708Z,925.16
2017-04-06T01:42:54.088Z,925.15
2017-04-06T01:43:22.502Z,925.13
2017-04-06T01:43:50.867Z,925.1
2017-04-06T01:44:19.060Z,925.12
2017-04-06T01:44:47.455Z,925.12
2017-04-06T01:45:15.979Z,925.14
2017-04-06T01:46:27.396Z,925.17
2017-04-06T01:46:55.657Z,925.17
2017-04-06T01:47:23.982Z,925.15
2017-04-06T01:47:52.321Z,925.15
2017-04-06T01:48:20.577Z,925.18
2017-04-06T01:48:48.955Z,925.22
2017-04-06T01:49:17.361Z,925.19
2017-04-06T01:49:45.727Z,925.15
2017-04-06T01:50:13.924Z,925.11
2017-04-06T01:50:42.397Z,925.12
2017-04-06T01:51:10.932Z,925.16
2017-04-06T01:52:23.098Z,925.16
2017-04-06T01:52:51.533Z,925.11
2017-04-06T01:53:19.857Z,925.14
2017-04-06T01:53:48.370Z,925.12
2017-04-06T01:54:16.714Z,925.12
2017-04-06T01:54:45.084Z,925.12
2017-04-06T01:55:13.496Z,925.11
2017-04-06T01:55:41.866Z,925.11
2017-04-06T01:56:10.161Z,925.13
2017-04-06T01:56:38.517Z,925.11
2017-04-06T01:57:06.748Z,925.08
2017-04-06T01:58:18.154Z,925.08
2017-04-06T01:58:46.594Z,925.07
2017-04-06T01:59:15.010Z,925.06
2017-04-06T01:59:43.454Z,925.09
2017-04-06T02:00:11.772Z,925.09
2017-04-06T02:00:40.146Z,925.07
2017-04-06T02:01:08.555Z,925.06
2017-04-06T02:01:36.912Z,925.03
2017-04-06T02:02:05.201Z,925.06
2017-04-06T02:02:33.712Z,925.06
2017-04-06T02:03:02.040Z,925.07
2017-04-06T02:04:13.261Z,925.05
2017-04-06T02:04:41.608Z,925.09
2017-04-06T02:05:09.941Z,925.1
2017-04-06T02:05:38.379Z,925.09
2017-04-06T02:06:06.731Z,925.13
2017-04-06T02:06:35.200Z,925.14
2017-04-06T02:07:03.605Z,925.08
2017-04-06T02:07:31.969Z,925.11
2017-04-06T02:08:00.352Z,925.07
2017-04-06T02:08:28.840Z,925.07
2017-04-06T02:08:57.162Z,925.07
2017-04-06T02:10:09.420Z,925.09
2017-04-06T02:10:37.865Z,925.07
2017-04-06T02:11:06.187Z,925.04
2017-04-06T02:11:35.142Z,925.01
2017-04-06T02:12:03.494Z,925.03
2017-04-06T02:12:31.870Z,925.02
2017-04-06T02:13:00.278Z,925
2017-04-06T02:13:28.455Z,925.02
2017-04-06T02:13:56.651Z,925.01
2017-04-06T02:14:25.140Z,925.06
2017-04-06T02:14:53.368Z,925.04
2017-04-06T02:16:04.776Z,925.03
2017-04-06T02:16:33.110Z,925.02
2017-04-06T02:17:01.508Z,925.05
2017-04-06T02:17:29.955Z,925.01
2017-04-06T02:17:58.304Z,925.04
2017-04-06T02:18:26.579Z,925
2017-04-06T02:18:54.925Z,925.01
2017-04-06T02:19:23.292Z,925.07
2017-04-06T02:19:51.489Z,925.03
2017-04-06T02:20:19.965Z,925.03
2017-04-06T02:20:48.199Z,924.99
2017-04-06T02:21:59.512Z,924.99
2017-04-06T02:22:27.767Z,924.99
2017-04-06T02:22:56.166Z,925.03
2017-04-06T02:23:24.532Z,925.02
2017-04-06T02:23:52.879Z,925.03
2017-04-06T02:24:21.161Z,925.03
2017-04-06T02:24:49.566Z,925.07
2017-04-06T02:25:17.837Z,925.05
2017-04-06T02:25:46.125Z,925.06
2017-04-06T02:26:14.562Z,925.08
2017-04-06T02:26:42.882Z,925.07
2017-04-06T02:27:54.103Z,925.09
2017-04-06T02:28:22.450Z,925.11
2017-04-06T02:28:50.759Z,925.08
2017-04-06T02:29:19.208Z,925.08
2017-04-06T02:29:47.467Z,925.12
2017-04-06T02:30:15.928Z,925.12
2017-04-06T02:30:44.338Z,925.12
2017-04-06T02:31:12.704Z,925.14
2017-04-06T02:31:40.995Z,925.12
2017-04-06T02:32:09.675Z,925.15
2017-04-06T02:32:39.101Z,925.15
2017-04-06T02:33:50.600Z,925.13
2017-04-06T02:34:18.830Z,925.15
2017-04-06T02:34:47.051Z,925.14
2017-04-06T02:35:15.494Z,925.17
2017-04-06T02:35:43.846Z,925.15
2017-04-06T02:36:12.211Z,925.15
2017-04-06T02:36:40.616Z,925.14
2017-04-06T02:37:08.798Z,925.14
2017-04-06T02:37:37.088Z,925.17
2017-04-06T02:38:05.431Z,925.15
2017-04-06T02:38:33.752Z,925.13
2017-04-06T02:39:45.394Z,925.12
2017-04-06T02:40:13.711Z,925.12
2017-04-06T02:40:41.925Z,925.1
2017-04-06T02:41:10.761Z,925.1
2017-04-06T02:41:39.014Z,925.09
2017-04-06T02:42:07.467Z,925.06
2017-04-06T02:42:35.780Z,925.06
2017-04-06T02:43:04.048Z,925.04
2017-04-06T02:43:32.339Z,925.05
2017-04-06T02:44:00.724Z,925.07
2017-04-06T02:44:29.049Z,925.09
2017-04-06T02:45:40.082Z,925.04
2017-04-06T02:46:08.495Z,925.04
2017-04-06T02:46:36.907Z,925.04
2017-04-06T02:47:05.650Z,925.01
2017-04-06T02:47:33.815Z,925.01
2017-04-06T02:48:02.182Z,925.02
2017-04-06T02:48:30.503Z,924.98
2017-04-06T02:48:58.772Z,925.01
2017-04-06T02:49:27.065Z,924.99
2017-04-06T02:49:55.519Z,924.98
2017-04-06T02:50:23.745Z,924.98
2017-04-06T02:51:35.239Z,925
2017-04-06T02:52:03.545Z,924.98
2017-04-06T02:52:31.857Z,925
2017-04-06T02:53:00.703Z,924.99
2017-04-06T02:53:28.966Z,924.96
2017-04-06T02:53:57.324Z,925.02
2017-04-06T02:54:25.629Z,925
2017-04-06T02:54:53.802Z,924.99
2017-04-06T02:55:22.090Z,924.99
2017-04-06T02:55:50.544Z,925.01
2017-04-06T02:56:18.865Z,924.99
2017-04-06T02:57:30.363Z,925.02
2017-04-06T02:57:58.582Z,925.05
2017-04-06T02:58:26.892Z,925.02
2017-04-06T02:58:55.334Z,924.99
2017-04-06T02:59:23.589Z,924.99
2017-04-06T02:59:51.947Z,925.02
2017-04-06T03:00:20.362Z,925.03
2017-04-06T03:00:48.726Z,925.02
2017-04-06T03:01:17.014Z,925.01
2017-04-06T03:01:45.940Z,925
2017-04-06T03:02:14.262Z,925.01
2017-04-06T03:03:25.662Z,925.01
2017-04-06T03:03:54.057Z,925.02
2017-04-06T03:04:22.456Z,924.99
2017-04-06T03:04:50.887Z,925.01
2017-04-06T03:05:19.051Z,925
2017-04-06T03:05:47.425Z,925.02
2017-04-06T03:06:15.833Z,925.01
2017-04-06T03:06:44.196Z,925.02
2017-04-06T03:07:12.486Z,924.97
2017-04-06T03:07:40.863Z,925.04
2017-04-06T03:08:09.184Z,925.02
2017-04-06T03:09:20.307Z,925.05
2017-04-06T03:09:48.711Z,925.04
2017-04-06T03:10:17.113Z,925.06
2017-04-06T03:10:45.650Z,925.04
2017-04-06T03:11:13.999Z,925.06
2017-04-06T03:11:42.441Z,925.01
2017-04-06T03:12:10.844Z,925.03
2017-04-06T03:12:39.213Z,925.02
2017-04-06T03:13:07.557Z,925.01
2017-04-06T03:13:36.012Z,925
2017-04-06T03:14:04.242Z,925.01
2017-04-06T03:15:15.645Z,925
2017-04-06T03:15:43.946Z,925
2017-04-06T03:16:12.348Z,925
2017-04-06T03:16:40.875Z,924.97
2017-04-06T03:17:09.129Z,925
2017-04-06T03:17:37.594Z,924.99
2017-04-06T03:18:06.002Z,924.96
2017-04-06T03:18:34.272Z,925.01
2017-04-06T03:19:02.568Z,924.97
2017-04-06T03:19:31.018Z,924.95
2017-04-06T03:19:59.343Z,924.96
2017-04-06T03:21:10.843Z,924.94
2017-04-06T03:21:39.144Z,924.92
2017-04-06T03:22:07.546Z,924.95
2017-04-06T03:22:35.963Z,924.94
2017-04-06T03:23:04.315Z,924.91
2017-04-06T03:23:32.674Z,924.95
2017-04-06T03:24:00.982Z,924.92
2017-04-06T03:24:29.254Z,924.92
2017-04-06T03:24:57.661Z,924.91
2017-04-06T03:25:26.070Z,924.91
2017-04-06T03:25:54.389Z,924.88
2017-04-06T03:27:05.886Z,924.9
2017-04-06T03:27:34.274Z,924.9
2017-04-06T03:28:02.589Z,924.89
2017-04-06T03:28:30.897Z,924.86
2017-04-06T03:28:59.150Z,924.89
2017-04-06T03:29:27.595Z,924.86
2017-04-06T03:29:55.905Z,924.89
2017-04-06T03:30:24.085Z,924.88
2017-04-06T03:30:52.375Z,924.86
2017-04-06T03:31:20.799Z,924.86
2017-04-06T03:31:49.123Z,924.86
2017-04-06T03:33:00.527Z,924.82
2017-04-06T03:33:28.921Z,924.84
2017-04-06T03:33:57.323Z,924.81
2017-04-06T03:34:25.809Z,924.76
2017-04-06T03:34:53.879Z,924.79
2017-04-06T03:35:22.225Z,924.78
2017-04-06T03:35:50.629Z,924.76
2017-04-06T03:36:18.994Z,924.78
2017-04-06T03:36:47.288Z,924.79
2017-04-06T03:37:15.724Z,924.78
2017-04-06T03:37:43.948Z,924.77
2017-04-06T03:38:55.349Z,924.8
2017-04-06T03:39:23.737Z,924.79
2017-04-06T03:39:52.135Z,924.78
2017-04-06T03:40:20.625Z,924.73
2017-04-06T03:40:48.970Z,924.76
2017-04-06T03:41:17.228Z,924.74
2017-04-06T03:41:45.630Z,924.73
2017-04-06T03:42:13.992Z,924.74
2017-04-06T03:42:42.380Z,924.71
2017-04-06T03:43:10.789Z,924.7
2017-04-06T03:43:39.104Z,924.72
2017-04-06T03:44:50.509Z,924.76
2017-04-06T03:45:18.898Z,924.74
2017-04-06T03:45:47.111Z,924.75
2017-04-06T03:46:15.576Z,924.75
2017-04-06T03:46:43.738Z,924.71
2017-04-06T03:47:12.175Z,924.75
2017-04-06T03:47:40.582Z,924.72
2017-04-06T03:48:08.856Z,924.75
2017-04-06T03:48:37.242Z,924.76
2017-04-06T03:49:05.556Z,924.75
2017-04-06T03:49:33.879Z,924.73
2017-04-06T03:50:45.283Z,924.69
2017-04-06T03:51:13.584Z,924.72
2017-04-06T03:51:41.990Z,924.69
2017-04-06T03:52:10.472Z,924.7
2017-04-06T03:52:38.728Z,924.72
2017-04-06T03:53:07.071Z,924.71
2017-04-06T03:53:35.472Z,924.68
2017-04-06T03:54:03.747Z,924.72
2017-04-06T03:54:31.853Z,924.71
2017-04-06T03:55:00.075Z,924.64
2017-04-06T03:55:28.502Z,924.69
2017-04-06T03:56:39.997Z,924.66
2017-04-06T03:57:08.291Z,924.65
2017-04-06T03:57:36.962Z,924.65
2017-04-06T03:58:05.427Z,924.66
2017-04-06T03:58:33.681Z,924.64
2017-04-06T03:59:02.029Z,924.67
2017-04-06T03:59:30.432Z,924.65
2017-04-06T03:59:58.702Z,924.66
2017-04-06T04:00:26.989Z,924.64
2017-04-06T04:00:55.395Z,924.63
2017-04-06T04:01:23.621Z,924.63
2017-04-06T04:02:35.027Z,924.65
2017-04-06T04:03:03.414Z,924.61
2017-04-06T04:03:31.813Z,924.6
2017-04-06T04:03:59.998Z,924.6
2017-04-06T04:04:28.259Z,924.59
2017-04-06T04:04:56.696Z,924.58
2017-04-06T04:05:25.099Z,924.59
2017-04-06T04:05:53.281Z,924.56
2017-04-06T04:06:21.569Z,924.57
2017-04-06T04:06:49.977Z,924.57
2017-04-06T04:07:18.205Z,924.55
2017-04-06T04:08:29.521Z,924.55
2017-04-06T04:08:57.819Z,924.52
2017-04-06T04:09:26.219Z,924.52
2017-04-06T04:09:54.996Z,924.47
2017-04-06T04:10:23.257Z,924.46
2017-04-06T04:10:51.697Z,924.5
2017-04-06T04:11:20.101Z,924.46
2017-04-06T04:11:48.812Z,924.45
2017-04-06T04:12:17.102Z,924.46
2017-04-06T04:12:45.417Z,924.44
2017-04-06T04:13:13.739Z,924.4
2017-04-06T04:14:25.044Z,924.41
2017-04-06T04:14:53.439Z,924.43
2017-04-06T04:15:21.841Z,924.39
2017-04-06T04:15:50.509Z,924.36
2017-04-06T04:16:18.860Z,924.38
2017-04-06T04:16:47.299Z,924.39
2017-04-06T04:17:15.706Z,924.36
2017-04-06T04:17:44.074Z,924.36
2017-04-06T04:18:12.275Z,924.33
2017-04-06T04:18:40.590Z,924.33
2017-04-06T04:19:08.910Z,924.33
2017-04-06T04:20:20.410Z,924.29
2017-04-06T04:20:48.797Z,924.21
2017-04-06T04:21:17.202Z,924.27
2017-04-06T04:21:45.570Z,924.21
2017-04-06T04:22:13.917Z,924.22
2017-04-06T04:22:42.264Z,924.21
2017-04-06T04:23:10.576Z,924.2
2017-04-06T04:23:38.842Z,924.21
2017-04-06T04:24:07.133Z,924.22
2017-04-06T04:24:35.445Z,924.21
2017-04-06T04:25:03.577Z,924.2
2017-04-06T04:26:14.974Z,924.19
2017-04-06T04:26:43.271Z,924.23
2017-04-06T04:27:11.664Z,924.19
2017-04-06T04:27:40.127Z,924.18
2017-04-06T04:28:08.285Z,924.17
2017-04-06T04:28:36.719Z,924.17
2017-04-06T04:29:05.027Z,924.19
2017-04-06T04:29:33.392Z,924.19
2017-04-06T04:30:01.590Z,924.18
2017-04-06T04:30:29.714Z,924.18
2017-04-06T04:30:58.037Z,924.19
2017-04-06T04:32:09.429Z,924.14
2017-04-06T04:32:37.718Z,924.19
2017-04-06T04:33:06.868Z,924.15
2017-04-06T04:33:35.238Z,924.12
2017-04-06T04:34:03.584Z,924.14
2017-04-06T04:34:31.925Z,924.14
2017-04-06T04:35:00.327Z,924.16
2017-04-06T04:35:28.498Z,924.14
2017-04-06T04:35:56.600Z,924.13
2017-04-06T04:36:24.913Z,924.12
2017-04-06T04:36:53.233Z,924.16
2017-04-06T04:38:04.447Z,924.15
2017-04-06T04:38:32.745Z,924.14
2017-04-06T04:39:01.054Z,924.15
2017-04-06T04:39:29.613Z,924.13
2017-04-06T04:39:57.962Z,924.16
2017-04-06T04:40:26.310Z,924.15
2017-04-06T04:40:54.716Z,924.13
2017-04-06T04:41:22.986Z,924.14
2017-04-06T04:41:51.278Z,924.14
2017-04-06T04:42:19.591Z,924.15
2017-04-06T04:42:47.907Z,924.14
2017-04-06T04:43:59.403Z,924.11
2017-04-06T04:44:27.605Z,924.1
2017-04-06T04:44:56.002Z,924.14
2017-04-06T04:45:24.371Z,924.12
2017-04-06T04:45:52.620Z,924.12
2017-04-06T04:46:20.869Z,924.14
2017-04-06T04:46:49.178Z,924.1
2017-04-06T04:47:17.451Z,924.13
2017-04-06T04:47:45.651Z,924.14
2017-04-06T04:48:13.966Z,924.12
2017-04-06T04:48:42.116Z,924.16
2017-04-06T04:49:53.519Z,924.16
2017-04-06T04:50:21.621Z,924.14
2017-04-06T04:50:49.933Z,924.13
2017-04-06T04:51:18.391Z,924.13
2017-04-06T04:51:46.449Z,924.15
2017-04-06T04:52:14.887Z,924.13
2017-04-06T04:52:43.293Z,924.15
2017-04-06T04:53:11.562Z,924.16
2017-04-06T04:53:39.858Z,924.11
2017-04-06T04:54:08.075Z,924.15
2017-04-06T04:54:36.206Z,924.16
2017-04-06T04:55:47.700Z,924.15
2017-04-06T04:56:15.894Z,924.13
2017-04-06T04:56:44.202Z,924.15
2017-04-06T04:57:12.567Z,924.12
2017-04-06T04:57:40.839Z,924.12
2017-04-06T04:58:09.185Z,924.1
2017-04-06T04:58:37.586Z,924.12
2017-04-06T04:59:05.951Z,924.13
2017-04-06T04:59:34.140Z,924.07
2017-04-06T05:00:02.540Z,924.12
2017-04-06T05:00:30.859Z,924.11
2017-04-06T05:01:42.353Z,924.1
2017-04-06T05:02:10.547Z,924.1
2017-04-06T05:02:38.760Z,924.1
2017-04-06T05:03:06.968Z,924.08
2017-04-06T05:03:35.160Z,924.09
2017-04-06T05:04:03.571Z,924.12
2017-04-06T05:04:31.785Z,924.12
2017-04-06T05:05:00.050Z,924.11
2017-04-06T05:05:28.340Z,924.12
2017-04-06T05:05:56.656Z,924.16
2017-04-06T05:06:24.603Z,924.09
2017-04-06T05:07:36.001Z,924.12
2017-04-06T05:08:04.389Z,924.12
2017-04-06T05:08:32.786Z,924.11
2017-04-06T05:09:01.233Z,924.13
2017-04-06T05:09:29.391Z,924.14
2017-04-06T05:09:57.832Z,924.15
2017-04-06T05:10:25.959Z,924.13
2017-04-06T05:10:54.222Z,924.15
2017-04-06T05:11:22.420Z,924.14
2017-04-06T05:11:50.825Z,924.15
2017-04-06T05:12:19.052Z,924.15
2017-04-06T05:13:30.267Z,924.15
2017-04-06T05:13:58.558Z,924.18
2017-04-06T05:14:26.864Z,924.17
2017-04-06T05:14:55.305Z,924.2
2017-04-06T05:15:23.653Z,924.17
2017-04-06T05:15:51.817Z,924.18
2017-04-06T05:16:20.038Z,924.17
2017-04-06T05:16:48.402Z,924.17
2017-04-06T05:17:16.691Z,924.15
2017-04-06T05:17:45.094Z,924.16
2017-04-06T05:18:13.412Z,924.16
2017-04-06T05:19:24.811Z,924.16
2017-04-06T05:19:53.109Z,924.18
2017-04-06T05:20:21.417Z,924.16
2017-04-06T05:20:49.782Z,924.15
2017-04-06T05:21:17.943Z,924.15
2017-04-06T05:21:46.379Z,924.13
2017-04-06T05:22:14.688Z,924.1
2017-04-06T05:22:43.047Z,924.14
2017-04-06T05:23:11.425Z,924.14
2017-04-06T05:23:39.737Z,924.12
2017-04-06T05:24:07.963Z,924.09
2017-04-06T05:25:19.364Z,924.11
2017-04-06T05:25:47.749Z,924.07
2017-04-06T05:26:16.053Z,924.08
2017-04-06T05:26:44.136Z,924.08
2017-04-06T05:27:12.394Z,924.09
2017-04-06T05:27:40.738Z,924.12
2017-04-06T05:28:08.957Z,924.06
2017-04-06T05:28:37.324Z,924.06
2017-04-06T05:29:05.611Z,924.05
2017-04-06T05:29:33.924Z,924.07
2017-04-06T05:30:02.050Z,924.06
2017-04-06T05:31:13.783Z,924.02
2017-04-06T05:31:42.077Z,924.03
2017-04-06T05:32:10.477Z,924.02
2017-04-06T05:32:38.752Z,924.02
2017-04-06T05:33:07.094Z,924.04
2017-04-06T05:33:35.530Z,924.02
2017-04-06T05:34:03.842Z,924.02
2017-04-06T05:34:32.106Z,924
2017-04-06T05:35:00.303Z,923.97
2017-04-06T05:35:28.616Z,923.97
2017-04-06T05:35:56.934Z,923.99
2017-04-06T05:37:08.333Z,923.98
2017-04-06T05:37:36.627Z,924
2017-04-06T05:38:05.023Z,923.98
2017-04-06T05:38:33.375Z,923.97
2017-04-06T05:39:01.537Z,923.97
2017-04-06T05:39:29.974Z,923.93
2017-04-06T05:39:58.286Z,923.93
2017-04-06T05:40:26.464Z,923.93
2017-04-06T05:40:54.844Z,923.93
2017-04-06T05:41:23.250Z,923.94
2017-04-06T05:41:52.008Z,923.92
2017-04-06T05:43:03.321Z,923.89
2017-04-06T05:43:31.703Z,923.89
2017-04-06T05:44:00.105Z,923.89
2017-04-06T05:44:28.354Z,923.88
2017-04-06T05:44:56.701Z,923.84
2017-04-06T05:45:25.051Z,923.85
2017-04-06T05:45:53.361Z,923.86
2017-04-06T05:46:21.636Z,923.87
2017-04-06T05:46:50.017Z,923.86
2017-04-06T05:47:18.330Z,923.82
2017-04-06T05:47:46.645Z,923.8
2017-04-06T05:48:58.051Z,923.8
2017-04-06T05:49:26.247Z,923.8
2017-04-06T05:49:54.560Z,923.81
2017-04-06T05:50:22.808Z,923.8
2017-04-06T05:50:51.066Z,923.78
2017-04-06T05:51:19.503Z,923.76
2017-04-06T05:51:47.811Z,923.82
2017-04-06T05:52:16.097Z,923.79
2017-04-06T05:52:44.397Z,923.78
2017-04-06T05:53:12.614Z,923.79
2017-04-06T05:53:40.991Z,923.78
2017-04-06T05:54:52.359Z,923.79
2017-04-06T05:55:20.626Z,923.77
2017-04-06T05:55:48.901Z,923.77
2017-04-06T05:56:17.205Z,923.77
2017-04-06T05:56:45.531Z,923.75
2017-04-06T05:57:13.961Z,923.74
2017-04-06T05:57:42.342Z,923.74
2017-04-06T05:58:10.689Z,923.75
2017-04-06T05:58:38.926Z,923.75
2017-04-06T05:59:07.149Z,923.77
2017-04-06T05:59:35.423Z,923.73
2017-04-06T06:00:46.685Z,923.74
2017-04-06T06:01:14.859Z,923.72
2017-04-06T06:01:43.131Z,923.74
2017-04-06T06:02:11.549Z,923.73
2017-04-06T06:02:39.596Z,923.73
2017-04-06T06:03:07.840Z,923.75
2017-04-06T06:03:35.936Z,923.73
2017-04-06T06:04:04.290Z,923.72
2017-04-06T06:04:32.544Z,923.77
2017-04-06T06:05:00.960Z,923.73
2017-04-06T06:05:29.329Z,923.75
2017-04-06T06:06:40.687Z,923.77
2017-04-06T06:07:08.864Z,923.77
2017-04-06T06:07:37.128Z,923.75
2017-04-06T06:08:05.536Z,923.79
2017-04-06T06:08:33.862Z,923.78
2017-04-06T06:09:02.109Z,923.79
2017-04-06T06:09:30.292Z,923.79
2017-04-06T06:09:58.551Z,923.83
2017-04-06T06:10:26.625Z,923.8
2017-04-06T06:10:54.851Z,923.78
2017-04-06T06:11:23.031Z,923.81
2017-04-06T06:12:34.477Z,923.81
2017-04-06T06:13:02.842Z,923.8
2017-04-06T06:13:31.198Z,923.81
2017-04-06T06:13:59.508Z,923.8
2017-04-06T06:14:27.846Z,923.82
2017-04-06T06:14:56.277Z,923.85
2017-04-06T06:15:24.653Z,923.81
2017-04-06T06:15:53.010Z,923.84
2017-04-06T06:16:21.179Z,923.81
2017-04-06T06:16:49.491Z,923.8
2017-04-06T06:17:17.764Z,923.82
2017-04-06T06:18:29.122Z,923.81
2017-04-06T06:18:57.296Z,923.75
2017-04-06T06:19:25.469Z,923.77
2017-04-06T06:19:53.831Z,923.76
2017-04-06T06:20:21.975Z,923.79
2017-04-06T06:20:50.306Z,923.79
2017-04-06T06:21:18.608Z,923.78
2017-04-06T06:21:46.608Z,923.8
2017-04-06T06:22:14.975Z,923.81
2017-04-06T06:22:43.387Z,923.84
2017-04-06T06:23:11.764Z,923.82
2017-04-06T06:24:23.121Z,923.85
2017-04-06T06:24:51.379Z,923.87
2017-04-06T06:25:19.573Z,923.87
2017-04-06T06:25:47.810Z,923.89
2017-04-06T06:26:16.044Z,923.88
2017-04-06T06:26:44.328Z,923.91
2017-04-06T06:27:12.602Z,923.9
2017-04-06T06:27:40.951Z,923.89
2017-04-06T06:28:09.214Z,923.87
2017-04-06T06:28:37.621Z,923.86
2017-04-06T06:29:05.892Z,923.82
2017-04-06T06:30:17.341Z,923.79
2017-04-06T06:30:45.515Z,923.7
2017-04-06T06:31:13.776Z,923.69
2017-04-06T06:31:42.035Z,923.72
2017-04-06T06:32:10.270Z,923.73
2017-04-06T06:32:38.460Z,923.71
2017-04-06T06:33:06.831Z,923.71
2017-04-06T06:33:35.087Z,923.72
2017-04-06T06:34:03.248Z,923.7
2017-04-06T06:34:31.666Z,923.76
2017-04-06T06:34:59.750Z,923.73
2017-04-06T06:36:11.007Z,923.71
2017-04-06T06:36:39.360Z,923.7
2017-04-06T06:37:07.628Z,923.71
2017-04-06T06:37:35.793Z,923.72
2017-04-06T06:38:04.122Z,923.72
2017-04-06T06:38:32.311Z,923.72
2017-04-06T06:39:00.400Z,923.67
2017-04-06T06:39:28.658Z,923.7
2017-04-06T06:39:56.917Z,923.68
2017-04-06T06:40:25.331Z,923.66
2017-04-06T06:40:53.604Z,923.64
2017-04-06T06:42:05.052Z,923.69
2017-04-06T06:42:33.314Z,923.66
2017-04-06T06:43:01.581Z,923.65
2017-04-06T06:43:29.937Z,923.65
2017-04-06T06:43:58.173Z,923.63